createdAt,value
2023-03-27T00:01:32.797Z,99585.09
2023-03-27T00:04:00.711Z,99585.20
2023-03-27T00:06:28.479Z,99591.09
2023-03-27T00:08:56.287Z,99592.34
2023-03-27T00:11:25.157Z,99593.92
2023-03-27T00:13:56.228Z,99596.20
2023-03-27T00:16:25.465Z,99602.80
2023-03-27T00:18:54.408Z,99603.84
2023-03-27T00:21:26.175Z,99601.45
2023-03-27T00:23:54.610Z,99606.41
2023-03-27T00:26:22.684Z,99606.74
2023-03-27T00:28:50.897Z,99610.10
2023-03-27T00:31:18.812Z,99611.51
2023-03-27T00:33:46.837Z,99612.11
2023-03-27T00:36:15.409Z,99611.89
2023-03-27T00:38:43.854Z,99607.66
2023-03-27T00:41:12.839Z,99606.64
2023-03-27T00:43:43.785Z,99608.29
2023-03-27T00:46:15.518Z,99611.66
2023-03-27T00:48:47.344Z,99614.61
2023-03-27T00:51:16.356Z,99612.35
2023-03-27T00:53:45.694Z,99613.38
2023-03-27T00:56:16.632Z,99610.42
2023-03-27T00:58:47.114Z,99612.44
2023-03-27T01:01:16.624Z,99611.05
2023-03-27T01:03:47.192Z,99612.45
2023-03-27T01:06:19.361Z,99608.96
2023-03-27T01:08:48.258Z,99612.13
2023-03-27T01:11:38.376Z,99616.03
2023-03-27T01:14:13.607Z,99615.73
2023-03-27T01:16:41.607Z,99616.60
2023-03-27T01:19:12.442Z,99615.88
2023-03-27T01:21:58.985Z,99614.78
2023-03-27T01:24:48.519Z,99612.95
2023-03-27T01:27:38.040Z,99618.23
2023-03-27T01:30:15.457Z,99624.00
2023-03-27T01:33:02.044Z,99624.42
2023-03-27T01:35:56.697Z,99623.35
2023-03-27T01:38:28.668Z,99622.28
2023-03-27T01:41:18.771Z,99619.81
2023-03-27T01:43:52.613Z,99616.10
2023-03-27T01:46:26.834Z,99610.84
2023-03-27T01:49:01.069Z,99605.77
2023-03-27T01:51:34.978Z,99604.19
2023-03-27T01:54:21.854Z,99602.60
2023-03-27T01:56:55.364Z,99606.48
2023-03-27T01:59:27.244Z,99603.87
2023-03-27T02:01:59.050Z,99599.64
2023-03-27T02:04:41.386Z,99605.36
2023-03-27T02:07:12.796Z,99605.08
2023-03-27T02:09:47.603Z,99608.77
2023-03-27T02:12:24.356Z,99609.38
2023-03-27T02:14:57.642Z,99613.80
2023-03-27T02:17:52.454Z,99618.77
2023-03-27T02:20:21.051Z,99625.11
2023-03-27T02:22:48.928Z,99627.19
2023-03-27T02:25:24.445Z,99635.39
2023-03-27T02:28:01.544Z,99635.39
2023-03-27T02:30:40.303Z,99636.09
2023-03-27T02:33:28.954Z,99638.04
2023-03-27T02:36:11.076Z,99640.92
2023-03-27T02:38:51.699Z,99649.52
2023-03-27T02:41:24.657Z,99653.61
2023-03-27T02:44:10.355Z,99653.84
2023-03-27T02:47:07.686Z,99658.47
2023-03-27T02:50:02.867Z,99662.77
2023-03-27T02:52:34.836Z,99657.52
2023-03-27T02:55:08.053Z,99663.13
2023-03-27T02:57:52.469Z,99657.34
2023-03-27T03:00:58.217Z,99657.70
2023-03-27T03:03:53.943Z,99653.92
2023-03-27T03:06:47.665Z,99655.77
2023-03-27T03:09:15.532Z,99661.52
2023-03-27T03:11:51.506Z,99668.55
2023-03-27T03:14:22.375Z,99669.79
2023-03-27T03:16:50.658Z,99675.63
2023-03-27T03:19:18.462Z,99689.66
2023-03-27T03:21:47.061Z,99693.39
2023-03-27T03:24:15.002Z,99694.34
2023-03-27T03:26:45.583Z,99701.73
2023-03-27T03:29:14.291Z,99710.70
2023-03-27T03:31:45.274Z,99715.11
2023-03-27T03:34:14.534Z,99723.13
2023-03-27T03:36:44.940Z,99724.99
2023-03-27T03:39:12.981Z,99734.66
2023-03-27T03:41:41.906Z,99744.11
2023-03-27T03:44:10.511Z,99748.62
2023-03-27T03:46:39.484Z,99750.36
2023-03-27T03:49:07.569Z,99749.27
2023-03-27T03:51:36.064Z,99749.54
2023-03-27T03:54:06.068Z,99753.04
2023-03-27T03:56:34.630Z,99752.73
2023-03-27T03:59:02.883Z,99758.30
2023-03-27T04:01:31.137Z,99762.61
2023-03-27T04:04:02.482Z,99769.38
2023-03-27T04:06:43.347Z,99775.84
2023-03-27T04:09:11.686Z,99778.48
2023-03-27T04:11:52.189Z,99785.40
2023-03-27T04:14:39.874Z,99789.91
2023-03-27T04:17:17.798Z,99791.55
2023-03-27T04:19:46.366Z,99792.16
2023-03-27T04:22:17.324Z,99794.36
2023-03-27T04:24:45.225Z,99796.36
2023-03-27T04:27:15.284Z,99800.20
2023-03-27T04:29:55.163Z,99801.86
2023-03-27T04:32:32.197Z,99803.21
2023-03-27T04:35:23.520Z,99808.61
2023-03-27T04:38:01.827Z,99812.41
2023-03-27T04:40:58.703Z,99820.18
2023-03-27T04:43:27.295Z,99824.61
2023-03-27T04:45:55.488Z,99830.70
2023-03-27T04:48:23.665Z,99840.64
2023-03-27T04:50:53.953Z,99844.08
2023-03-27T04:53:43.098Z,99849.44
2023-03-27T04:56:12.169Z,99845.83
2023-03-27T04:58:46.690Z,99849.33
2023-03-27T05:01:17.458Z,99854.08
2023-03-27T05:04:11.496Z,99848.89
2023-03-27T05:06:59.336Z,99857.89
2023-03-27T05:09:28.065Z,99857.73
2023-03-27T05:11:56.156Z,99859.08
2023-03-27T05:14:23.925Z,99864.76
2023-03-27T05:16:52.479Z,99862.15
2023-03-27T05:19:21.394Z,99869.84
2023-03-27T05:21:57.794Z,99875.45
2023-03-27T05:24:25.543Z,99879.16
2023-03-27T05:26:55.033Z,99885.58
2023-03-27T05:29:22.872Z,99885.38
2023-03-27T05:31:59.492Z,99884.84
2023-03-27T05:34:38.940Z,99889.34
2023-03-27T05:37:08.265Z,99895.55
2023-03-27T05:39:48.599Z,99899.06
2023-03-27T05:42:16.677Z,99901.61
2023-03-27T05:44:44.637Z,99907.45
2023-03-27T05:47:13.000Z,99910.81
2023-03-27T05:49:41.978Z,99910.42
2023-03-27T05:52:12.555Z,99912.39
2023-03-27T05:54:40.263Z,99916.36
2023-03-27T05:57:11.897Z,99917.19
2023-03-27T05:59:40.826Z,99926.61
2023-03-27T06:02:21.500Z,99921.85
2023-03-27T06:05:10.682Z,99930.75
2023-03-27T06:07:43.519Z,99941.47
2023-03-27T06:10:14.086Z,99945.32
2023-03-27T06:13:01.544Z,99947.66
2023-03-27T06:15:37.674Z,99954.06
2023-03-27T06:18:31.989Z,99952.21
2023-03-27T06:21:00.542Z,99954.78
2023-03-27T06:23:28.880Z,99960.68
2023-03-27T06:25:57.021Z,99962.59
2023-03-27T06:28:25.227Z,99965.23
2023-03-27T06:30:53.028Z,99967.33
2023-03-27T06:33:35.227Z,99965.23
2023-03-27T06:36:06.107Z,99973.73
2023-03-27T06:38:38.123Z,99973.80
2023-03-27T06:41:06.378Z,99977.09
2023-03-27T06:43:52.829Z,99980.98
2023-03-27T06:46:45.247Z,99984.07
2023-03-27T06:49:28.218Z,99981.17
2023-03-27T06:51:56.160Z,99986.14
2023-03-27T06:54:24.351Z,99988.52
2023-03-27T06:56:54.580Z,99991.99
2023-03-27T06:59:23.048Z,99996.41
2023-03-27T07:01:55.748Z,99998.02
2023-03-27T07:04:35.493Z,100005.11
2023-03-27T07:07:23.704Z,100010.77
2023-03-27T07:09:51.621Z,100014.36
2023-03-27T07:12:23.051Z,100020.80
2023-03-27T07:14:51.587Z,100026.14
2023-03-27T07:17:19.515Z,100027.14
2023-03-27T07:19:52.338Z,100031.13
2023-03-27T07:22:22.129Z,100030.61
2023-03-27T07:24:50.686Z,100038.07
2023-03-27T07:27:19.188Z,100038.50
2023-03-27T07:29:47.655Z,100047.28
2023-03-27T07:32:29.751Z,100053.04
2023-03-27T07:35:05.546Z,100067.38
2023-03-27T07:37:56.141Z,100067.33
2023-03-27T07:40:43.031Z,100070.51
2023-03-27T07:43:29.431Z,100078.17
2023-03-27T07:45:58.092Z,100074.61
2023-03-27T07:48:27.946Z,100074.77
2023-03-27T07:50:58.268Z,100071.67
2023-03-27T07:53:35.457Z,100074.90
2023-03-27T07:56:18.066Z,100080.66
2023-03-27T07:58:47.834Z,100086.17
2023-03-27T08:01:19.676Z,100093.66
2023-03-27T08:03:49.030Z,100098.16
2023-03-27T08:06:18.240Z,100101.45
2023-03-27T08:08:46.911Z,100098.33
2023-03-27T08:11:27.403Z,100105.09
2023-03-27T08:13:59.084Z,100110.63
2023-03-27T08:16:30.152Z,100114.74
2023-03-27T08:19:01.431Z,100116.39
2023-03-27T08:21:33.478Z,100121.35
2023-03-27T08:24:04.761Z,100123.60
2023-03-27T08:26:36.284Z,100134.55
2023-03-27T08:29:07.441Z,100129.64
2023-03-27T08:31:35.473Z,100130.12
2023-03-27T08:34:05.680Z,100128.30
2023-03-27T08:36:45.482Z,100131.33
2023-03-27T08:39:13.812Z,100138.80
2023-03-27T08:41:52.483Z,100136.34
2023-03-27T08:44:26.481Z,100145.19
2023-03-27T08:47:04.351Z,100152.90
2023-03-27T08:49:38.412Z,100150.23
2023-03-27T08:52:33.054Z,100146.83
2023-03-27T08:55:12.338Z,100143.55
2023-03-27T08:57:45.177Z,100146.35
2023-03-27T09:00:21.334Z,100150.63
2023-03-27T09:02:53.521Z,100152.96
2023-03-27T09:05:24.005Z,100157.33
2023-03-27T09:08:05.288Z,100152.29
2023-03-27T09:10:38.367Z,100149.88
2023-03-27T09:13:42.724Z,100157.81
2023-03-27T09:16:13.558Z,100167.16
2023-03-27T09:18:48.830Z,100174.83
2023-03-27T09:21:23.490Z,100171.64
2023-03-27T09:23:55.373Z,100173.36
2023-03-27T09:27:07.168Z,100171.23
2023-03-27T09:30:05.505Z,100187.70
2023-03-27T09:32:45.181Z,100183.89
2023-03-27T09:35:19.125Z,100189.05
2023-03-27T09:37:56.675Z,100202.78
2023-03-27T09:40:33.484Z,100205.30
2023-03-27T09:43:08.708Z,100206.73
2023-03-27T09:45:40.833Z,100199.30
2023-03-27T09:48:15.663Z,100198.20
2023-03-27T09:50:47.148Z,100201.27
2023-03-27T09:53:36.208Z,100204.60
2023-03-27T09:56:16.343Z,100206.65
2023-03-27T09:58:53.280Z,100213.43
2023-03-27T10:01:30.373Z,100214.29
2023-03-27T10:04:12.021Z,100216.21
2023-03-27T10:07:00.142Z,100218.46
2023-03-27T10:10:01.755Z,100219.30
2023-03-27T10:12:31.216Z,100222.09
2023-03-27T10:14:59.261Z,100223.55
2023-03-27T10:17:37.959Z,100228.20
2023-03-27T10:20:17.259Z,100223.31
2023-03-27T10:22:54.760Z,100221.73
2023-03-27T10:25:52.268Z,100222.91
2023-03-27T10:28:27.285Z,100220.03
2023-03-27T10:31:29.632Z,100216.93
2023-03-27T10:34:37.746Z,100222.61
2023-03-27T10:37:31.890Z,100216.11
2023-03-27T10:40:19.363Z,100221.95
2023-03-27T10:42:51.020Z,100217.31
2023-03-27T10:45:20.253Z,100221.54
2023-03-27T10:47:51.132Z,100235.84
2023-03-27T10:50:21.846Z,100230.91
2023-03-27T10:53:08.899Z,100235.38
2023-03-27T10:55:44.562Z,100240.70
2023-03-27T10:58:22.208Z,100247.93
2023-03-27T11:01:01.680Z,100256.88
2023-03-27T11:03:48.719Z,100258.54
2023-03-27T11:06:19.225Z,100259.09
2023-03-27T11:08:48.095Z,100263.48
2023-03-27T11:11:19.707Z,100262.61
2023-03-27T11:13:49.369Z,100264.38
2023-03-27T11:16:18.024Z,100268.13
2023-03-27T11:19:28.459Z,100272.02
2023-03-27T11:22:26.405Z,100269.30
2023-03-27T11:25:00.807Z,100270.79
2023-03-27T11:27:31.556Z,100265.90
2023-03-27T11:30:00.768Z,100268.84
2023-03-27T11:32:33.712Z,100278.29
2023-03-27T11:35:08.393Z,100285.64
2023-03-27T11:37:53.625Z,100288.38
2023-03-27T11:40:24.660Z,100289.79
2023-03-27T11:42:58.870Z,100297.14
2023-03-27T11:45:30.580Z,100302.41
2023-03-27T11:47:58.575Z,100304.33
2023-03-27T11:50:41.406Z,100306.13
2023-03-27T11:53:12.766Z,100308.20
2023-03-27T11:56:19.683Z,100311.48
2023-03-27T11:59:01.734Z,100310.26
2023-03-27T12:01:48.221Z,100319.73
2023-03-27T12:04:39.399Z,100319.89
2023-03-27T12:07:36.638Z,100328.55
2023-03-27T12:10:33.983Z,100325.55
2023-03-27T12:13:14.761Z,100326.77
2023-03-27T12:15:43.898Z,100323.80
2023-03-27T12:18:11.753Z,100325.75
2023-03-27T12:20:52.996Z,100324.81
2023-03-27T12:23:28.170Z,100326.16
2023-03-27T12:26:31.075Z,100336.06
2023-03-27T12:29:26.711Z,100339.29
2023-03-27T12:32:08.944Z,100340.20
2023-03-27T12:34:55.109Z,100334.75
2023-03-27T12:37:31.208Z,100337.90
2023-03-27T12:40:00.286Z,100336.92
2023-03-27T12:42:43.914Z,100336.18
2023-03-27T12:45:14.506Z,100323.14
2023-03-27T12:47:45.827Z,100324.89
2023-03-27T12:50:19.281Z,100324.26
2023-03-27T12:52:47.636Z,100331.44
2023-03-27T12:55:18.972Z,100340.11
2023-03-27T12:57:52.900Z,100350.35
2023-03-27T13:00:34.420Z,100355.57
2023-03-27T13:03:14.722Z,100363.02
2023-03-27T13:06:01.823Z,100361.70
2023-03-27T13:08:37.650Z,100361.64
2023-03-27T13:11:32.089Z,100356.86
2023-03-27T13:14:16.405Z,100354.62
2023-03-27T13:16:47.313Z,100360.17
2023-03-27T13:19:25.674Z,100363.95
2023-03-27T13:22:06.190Z,100364.87
2023-03-27T13:24:54.496Z,100375.91
2023-03-27T13:27:29.284Z,100370.78
2023-03-27T13:29:58.035Z,100375.97
2023-03-27T13:32:42.581Z,100375.31
2023-03-27T13:35:23.904Z,100380.67
2023-03-27T13:37:51.987Z,100387.62
2023-03-27T13:40:29.437Z,100393.91
2023-03-27T13:43:22.615Z,100397.70
2023-03-27T13:45:59.100Z,100398.54
2023-03-27T13:48:56.357Z,100405.42
2023-03-27T13:51:39.025Z,100405.31
2023-03-27T13:54:15.279Z,100409.11
2023-03-27T13:57:04.144Z,100402.76
2023-03-27T13:59:47.061Z,100401.33
2023-03-27T14:02:29.441Z,100409.17
2023-03-27T14:05:04.784Z,100414.02
2023-03-27T14:07:55.218Z,100426.83
2023-03-27T14:10:32.575Z,100432.95
2023-03-27T14:13:24.739Z,100429.21
2023-03-27T14:16:06.315Z,100426.46
2023-03-27T14:18:45.813Z,100422.52
2023-03-27T14:21:27.581Z,100430.19
2023-03-27T14:24:09.999Z,100423.63
2023-03-27T14:26:46.034Z,100421.77
2023-03-27T14:29:21.391Z,100430.20
2023-03-27T14:31:51.656Z,100430.48
2023-03-27T14:34:53.271Z,100440.83
2023-03-27T14:37:45.035Z,100440.65
2023-03-27T14:40:30.575Z,100436.39
2023-03-27T14:43:00.240Z,100446.19
2023-03-27T14:45:31.597Z,100446.73
2023-03-27T14:48:05.014Z,100453.67
2023-03-27T14:50:42.741Z,100455.44
2023-03-27T14:53:16.260Z,100455.61
2023-03-27T14:56:11.638Z,100460.29
2023-03-27T14:58:56.761Z,100462.90
2023-03-27T15:01:26.975Z,100472.65
2023-03-27T15:03:55.661Z,100474.65
2023-03-27T15:06:26.582Z,100475.71
2023-03-27T15:09:05.245Z,100482.79
2023-03-27T15:12:05.447Z,100479.84
2023-03-27T15:14:34.217Z,100481.20
2023-03-27T15:17:08.770Z,100475.02
2023-03-27T15:19:49.071Z,100488.12
2023-03-27T15:22:36.639Z,100496.20
2023-03-27T15:25:17.900Z,100499.73
2023-03-27T15:27:53.037Z,100498.52
2023-03-27T15:30:26.101Z,100495.58
2023-03-27T15:32:55.622Z,100498.63
2023-03-27T15:35:29.583Z,100502.81
2023-03-27T15:37:58.168Z,100501.82
2023-03-27T15:40:36.756Z,100510.72
2023-03-27T15:43:14.409Z,100515.87
2023-03-27T15:46:02.276Z,100514.33
2023-03-27T15:48:32.554Z,100520.95
2023-03-27T15:51:03.624Z,100522.49
2023-03-27T15:53:36.187Z,100522.91
2023-03-27T15:56:06.030Z,100521.52
2023-03-27T15:58:43.461Z,100526.52
2023-03-27T16:01:18.489Z,100526.14
2023-03-27T16:03:49.754Z,100530.40
2023-03-27T16:06:26.883Z,100533.30
2023-03-27T16:08:55.000Z,100538.85
2023-03-27T16:11:37.637Z,100539.21
2023-03-27T16:14:18.833Z,100549.59
2023-03-27T16:16:46.731Z,100547.88
2023-03-27T16:19:14.485Z,100553.42
2023-03-27T16:21:55.865Z,100562.11
2023-03-27T16:24:23.638Z,100560.98
2023-03-27T16:26:53.251Z,100565.54
2023-03-27T16:29:22.757Z,100565.80
2023-03-27T16:31:50.602Z,100575.20
2023-03-27T16:34:23.280Z,100578.05
2023-03-27T16:36:51.546Z,100578.78
2023-03-27T16:39:19.400Z,100584.45
2023-03-27T16:41:47.420Z,100587.20
2023-03-27T16:44:15.789Z,100589.64
2023-03-27T16:46:43.606Z,100590.14
2023-03-27T16:49:12.672Z,100591.96
2023-03-27T16:51:40.909Z,100594.10
2023-03-27T16:54:08.718Z,100596.16
2023-03-27T16:56:36.873Z,100596.68
2023-03-27T16:59:04.850Z,100598.38
2023-03-27T17:01:33.397Z,100600.25
2023-03-27T17:04:01.711Z,100605.95
2023-03-27T17:06:29.578Z,100606.48
2023-03-27T17:08:57.492Z,100609.97
2023-03-27T17:11:25.589Z,100615.06
2023-03-27T17:13:53.914Z,100617.10
2023-03-27T17:16:21.886Z,100625.52
2023-03-27T17:18:50.057Z,100628.22
2023-03-27T17:21:18.409Z,100630.55
2023-03-27T17:23:48.708Z,100631.34
2023-03-27T17:26:24.621Z,100632.92
2023-03-27T17:28:52.681Z,100635.11
2023-03-27T17:31:21.086Z,100636.56
2023-03-27T17:33:49.118Z,100633.90
2023-03-27T17:36:23.880Z,100636.64
2023-03-27T17:39:00.708Z,100640.98
2023-03-27T17:41:29.009Z,100644.90
2023-03-27T17:43:57.093Z,100646.29
2023-03-27T17:46:25.256Z,100648.65
2023-03-27T17:48:53.239Z,100652.33
2023-03-27T17:51:21.703Z,100652.46
2023-03-27T17:53:49.682Z,100654.95
2023-03-27T17:56:17.752Z,100657.50
2023-03-27T17:58:48.778Z,100663.86
2023-03-27T18:01:18.202Z,100666.58
2023-03-27T18:03:47.024Z,100666.30
2023-03-27T18:06:17.519Z,100665.83
2023-03-27T18:08:46.215Z,100668.00
2023-03-27T18:11:15.863Z,100668.52
2023-03-27T18:13:44.046Z,100668.02
2023-03-27T18:16:12.712Z,100666.14
2023-03-27T18:18:40.748Z,100670.95
2023-03-27T18:21:09.303Z,100675.70
2023-03-27T18:23:46.399Z,100673.88
2023-03-27T18:26:15.912Z,100673.79
2023-03-27T18:28:43.748Z,100672.02
2023-03-27T18:31:12.617Z,100673.66
2023-03-27T18:33:40.799Z,100676.10
2023-03-27T18:36:11.031Z,100673.15
2023-03-27T18:38:42.199Z,100676.84
2023-03-27T18:41:10.562Z,100676.12
2023-03-27T18:43:38.419Z,100677.30
2023-03-27T18:46:07.326Z,100678.95
2023-03-27T18:48:35.966Z,100677.91
2023-03-27T18:51:05.760Z,100680.55
2023-03-27T18:53:34.217Z,100683.05
2023-03-27T18:56:02.347Z,100682.81
2023-03-27T18:58:30.472Z,100685.48
2023-03-27T19:00:58.626Z,100687.46
2023-03-27T19:03:30.719Z,100685.13
2023-03-27T19:06:00.405Z,100683.99
2023-03-27T19:08:28.305Z,100684.16
2023-03-27T19:10:57.337Z,100687.55
2023-03-27T19:13:44.388Z,100685.55
2023-03-27T19:16:18.289Z,100688.82
2023-03-27T19:19:07.369Z,100690.66
2023-03-27T19:21:55.371Z,100688.55
2023-03-27T19:24:29.634Z,100683.17
2023-03-27T19:26:58.177Z,100681.30
2023-03-27T19:29:26.427Z,100679.80
2023-03-27T19:31:54.613Z,100680.51
2023-03-27T19:34:29.961Z,100682.56
2023-03-27T19:37:09.741Z,100679.36
2023-03-27T19:39:39.650Z,100676.44
2023-03-27T19:42:07.837Z,100680.58
2023-03-27T19:44:38.189Z,100679.46
2023-03-27T19:47:07.736Z,100679.63
2023-03-27T19:49:36.521Z,100681.58
2023-03-27T19:52:20.600Z,100678.86
2023-03-27T19:54:48.368Z,100676.45
2023-03-27T19:57:17.370Z,100673.00
2023-03-27T19:59:45.365Z,100670.73
2023-03-27T20:02:13.166Z,100668.55
2023-03-27T20:04:41.046Z,100666.70
2023-03-27T20:07:10.266Z,100660.76
2023-03-27T20:09:38.160Z,100659.13
2023-03-27T20:12:06.829Z,100657.05
2023-03-27T20:14:34.685Z,100654.50
2023-03-27T20:17:02.574Z,100654.27
2023-03-27T20:19:32.882Z,100648.49
2023-03-27T20:22:01.625Z,100647.77
2023-03-27T20:24:29.383Z,100641.30
2023-03-27T20:27:00.169Z,100639.77
2023-03-27T20:29:28.088Z,100639.70
2023-03-27T20:31:56.027Z,100638.59
2023-03-27T20:34:24.323Z,100638.57
2023-03-27T20:36:53.216Z,100633.80
2023-03-27T20:39:53.847Z,100634.40
2023-03-27T20:42:25.187Z,100628.65
2023-03-27T20:44:58.549Z,100621.91
2023-03-27T20:47:26.471Z,100620.25
2023-03-27T20:49:59.020Z,100620.46
2023-03-27T20:52:27.218Z,100621.48
2023-03-27T20:54:55.129Z,100621.88
2023-03-27T20:57:23.025Z,100616.00
2023-03-27T20:59:51.343Z,100613.73
2023-03-27T21:02:19.681Z,100608.43
2023-03-27T21:04:47.835Z,100608.43
2023-03-27T21:07:16.191Z,100608.66
2023-03-27T21:09:46.731Z,100611.43
2023-03-27T21:12:14.449Z,100610.10
2023-03-27T21:14:42.205Z,100605.28
2023-03-27T21:17:12.600Z,100605.86
2023-03-27T21:19:40.405Z,100605.16
2023-03-27T21:22:08.239Z,100600.75
2023-03-27T21:24:35.977Z,100599.66
2023-03-27T21:27:03.655Z,100591.76
2023-03-27T21:29:32.082Z,100590.77
2023-03-27T21:31:59.886Z,100583.26
2023-03-27T21:34:27.631Z,100580.49
2023-03-27T21:36:55.405Z,100577.13
2023-03-27T21:39:23.178Z,100577.08
2023-03-27T21:41:51.046Z,100573.40
2023-03-27T21:44:18.782Z,100570.31
2023-03-27T21:46:46.542Z,100565.98
2023-03-27T21:49:14.302Z,100563.73
2023-03-27T21:51:42.014Z,100561.27
2023-03-27T21:54:09.759Z,100561.18
2023-03-27T21:56:37.572Z,100564.83
2023-03-27T21:59:05.517Z,100563.39
2023-03-27T22:01:33.281Z,100560.52
2023-03-27T22:04:02.306Z,100554.36
2023-03-27T22:06:30.463Z,100558.21
2023-03-27T22:08:58.246Z,100556.67
2023-03-27T22:11:26.031Z,100551.94
2023-03-27T22:13:54.952Z,100550.49
2023-03-27T22:16:23.053Z,100550.07
2023-03-27T22:18:50.973Z,100548.23
2023-03-27T22:21:22.244Z,100549.36
2023-03-27T22:23:53.305Z,100546.97
2023-03-27T22:26:22.314Z,100546.94
2023-03-27T22:28:52.493Z,100540.33
2023-03-27T22:31:21.265Z,100538.89
2023-03-27T22:33:49.616Z,100539.52
2023-03-27T22:36:17.668Z,100534.45
2023-03-27T22:38:46.548Z,100531.02
2023-03-27T22:41:14.870Z,100531.17
2023-03-27T22:43:43.023Z,100530.09
2023-03-27T22:46:12.796Z,100525.11
2023-03-27T22:48:41.069Z,100530.70
2023-03-27T22:51:09.915Z,100526.58
2023-03-27T22:53:38.238Z,100526.41
2023-03-27T22:56:06.504Z,100534.11
2023-03-27T22:58:34.202Z,100534.06
2023-03-27T23:01:03.329Z,100527.35
2023-03-27T23:03:31.326Z,100530.56
2023-03-27T23:05:59.484Z,100538.05
2023-03-27T23:08:28.575Z,100528.96
2023-03-27T23:10:56.443Z,100546.69
2023-03-27T23:13:24.942Z,100550.69
2023-03-27T23:15:52.781Z,100554.91
2023-03-27T23:18:27.328Z,100543.79
2023-03-27T23:20:59.598Z,100529.05
2023-03-27T23:23:28.708Z,100520.66
2023-03-27T23:25:57.932Z,100520.56
2023-03-27T23:28:26.655Z,100519.67
2023-03-27T23:30:55.620Z,100521.61
2023-03-27T23:33:25.247Z,100531.02
2023-03-27T23:36:04.397Z,100535.79
2023-03-27T23:38:33.002Z,100531.55
2023-03-27T23:41:02.199Z,100534.30
2023-03-27T23:43:30.898Z,100536.73
2023-03-27T23:46:01.878Z,100540.33
2023-03-27T23:48:30.406Z,100535.05
2023-03-27T23:50:58.707Z,100527.00
2023-03-27T23:53:27.796Z,100525.92
2023-03-27T23:55:56.490Z,100527.15
2023-03-27T23:58:25.404Z,100530.53
